sensor_id;sensor_type;location;lat;lon;timestamp;pressure;altitude;pressure_sealevel;temperature;humidity
8318;BME280;4196;48.926;8.964;2022-09-27T00:00:08;97283.03;;;10.28;100.00
8318;BME280;4196;48.926;8.964;2022-09-27T00:03:00;97293.38;;;10.28;100.00
8318;BME280;4196;48.926;8.964;2022-09-27T00:05:47;97299.16;;;10.36;100.00
8318;BME280;4196;48.926;8.964;2022-09-27T00:08:35;97294.03;;;10.35;100.00
8318;BME280;4196;48.926;8.964;2022-09-27T00:11:31;97294.81;;;10.37;100.00
8318;BME280;4196;48.926;8.964;2022-09-27T00:14:18;97293.00;;;10.40;100.00
8318;BME280;4196;48.926;8.964;2022-09-27T00:17:04;97273.47;;;10.30;100.00
8318;BME280;4196;48.926;8.964;2022-09-27T00:19:50;97290.50;;;10.37;100.00
8318;BME280;4196;48.926;8.964;2022-09-27T00:22:37;97290.88;;;10.25;100.00
8318;BME280;4196;48.926;8.964;2022-09-27T00:25:24;97289.63;;;10.38;100.00
8318;BME280;4196;48.926;8.964;2022-09-27T00:28:10;97283.94;;;10.27;100.00
8318;BME280;4196;48.926;8.964;2022-09-27T00:30:57;97278.97;;;10.18;100.00
8318;BME280;4196;48.926;8.964;2022-09-27T00:33:44;97279.63;;;10.26;100.00
8318;BME280;4196;48.926;8.964;2022-09-27T00:36:31;97277.22;;;10.20;100.00
8318;BME280;4196;48.926;8.964;2022-09-27T00:39:18;97280.72;;;10.18;100.00
8318;BME280;4196;48.926;8.964;2022-09-27T00:42:09;97273.72;;;10.21;100.00
8318;BME280;4196;48.926;8.964;2022-09-27T00:45:03;97274.63;;;10.20;100.00
8318;BME280;4196;48.926;8.964;2022-09-27T00:47:58;97271.03;;;10.24;100.00
8318;BME280;4196;48.926;8.964;2022-09-27T00:50:49;97258.13;;;10.24;100.00
8318;BME280;4196;48.926;8.964;2022-09-27T00:53:48;97264.28;;;10.20;100.00
8318;BME280;4196;48.926;8.964;2022-09-27T00:56:39;97269.09;;;10.32;100.00
8318;BME280;4196;48.926;8.964;2022-09-27T00:59:44;97274.50;;;10.23;100.00
8318;BME280;4196;48.926;8.964;2022-09-27T01:02:32;97269.44;;;10.20;100.00
8318;BME280;4196;48.926;8.964;2022-09-27T01:05:23;97264.16;;;10.23;100.00
8318;BME280;4196;48.926;8.964;2022-09-27T01:08:10;97262.41;;;10.25;100.00
8318;BME280;4196;48.926;8.964;2022-09-27T01:11:13;97268.56;;;10.20;100.00
8318;BME280;4196;48.926;8.964;2022-09-27T01:14:24;97262.41;;;10.25;100.00
8318;BME280;4196;48.926;8.964;2022-09-27T01:20:32;97261.53;;;10.25;100.00
8318;BME280;4196;48.926;8.964;2022-09-27T01:26:43;97260.97;;;10.15;100.00
8318;BME280;4196;48.926;8.964;2022-09-27T01:42:04;97241.25;;;10.11;100.00
8318;BME280;4196;48.926;8.964;2022-09-27T01:45:54;97260.53;;;10.30;100.00
8318;BME280;4196;48.926;8.964;2022-09-27T01:49:15;97267.22;;;10.37;100.00
8318;BME280;4196;48.926;8.964;2022-09-27T01:52:04;97275.97;;;10.33;100.00
8318;BME280;4196;48.926;8.964;2022-09-27T01:54:56;97269.19;;;10.29;100.00
8318;BME280;4196;48.926;8.964;2022-09-27T01:58:28;97263.03;;;10.33;100.00
8318;BME280;4196;48.926;8.964;2022-09-27T02:01:19;97253.19;;;10.15;100.00
8318;BME280;4196;48.926;8.964;2022-09-27T02:04:11;97287.38;;;10.26;100.00
8318;BME280;4196;48.926;8.964;2022-09-27T02:07:33;97296.09;;;10.22;100.00
8318;BME280;4196;48.926;8.964;2022-09-27T02:10:28;97286.75;;;10.18;100.00
8318;BME280;4196;48.926;8.964;2022-09-27T02:17:01;97293.16;;;10.05;100.00
8318;BME280;4196;48.926;8.964;2022-09-27T02:20:01;97297.63;;;10.00;100.00
8318;BME280;4196;48.926;8.964;2022-09-27T02:26:32;97301.53;;;9.83;100.00
8318;BME280;4196;48.926;8.964;2022-09-27T02:29:26;97293.09;;;9.77;100.00
8318;BME280;4196;48.926;8.964;2022-09-27T02:32:18;97305.25;;;9.73;100.00
8318;BME280;4196;48.926;8.964;2022-09-27T02:35:17;97303.66;;;9.69;100.00
8318;BME280;4196;48.926;8.964;2022-09-27T02:38:06;97299.56;;;9.60;100.00
8318;BME280;4196;48.926;8.964;2022-09-27T02:40:53;97297.03;;;9.59;100.00
8318;BME280;4196;48.926;8.964;2022-09-27T02:43:40;97305.69;;;9.58;100.00
8318;BME280;4196;48.926;8.964;2022-09-27T02:56:02;97316.31;;;9.47;100.00
8318;BME280;4196;48.926;8.964;2022-09-27T03:06:09;97319.09;;;9.38;100.00
8318;BME280;4196;48.926;8.964;2022-09-27T03:08:56;97324.06;;;9.46;100.00
8318;BME280;4196;48.926;8.964;2022-09-27T03:11:43;97316.25;;;9.49;100.00
8318;BME280;4196;48.926;8.964;2022-09-27T03:14:30;97321.34;;;9.52;100.00
8318;BME280;4196;48.926;8.964;2022-09-27T03:17:39;97324.81;;;9.51;100.00
8318;BME280;4196;48.926;8.964;2022-09-27T03:21:01;97326.63;;;9.47;100.00
8318;BME280;4196;48.926;8.964;2022-09-27T03:23:47;97331.69;;;9.52;100.00
8318;BME280;4196;48.926;8.964;2022-09-27T03:26:35;97324.97;;;9.44;100.00
8318;BME280;4196;48.926;8.964;2022-09-27T03:29:22;97319.88;;;9.41;100.00
8318;BME280;4196;48.926;8.964;2022-09-27T03:32:15;97336.78;;;9.55;100.00
8318;BME280;4196;48.926;8.964;2022-09-27T03:35:18;97340.25;;;9.54;100.00
8318;BME280;4196;48.926;8.964;2022-09-27T03:38:04;97331.69;;;9.52;100.00
8318;BME280;4196;48.926;8.964;2022-09-27T03:40:52;97337.47;;;9.60;100.00
8318;BME280;4196;48.926;8.964;2022-09-27T03:43:39;97342.53;;;9.64;100.00
8318;BME280;4196;48.926;8.964;2022-09-27T03:46:26;97348.63;;;9.62;100.00
8318;BME280;4196;48.926;8.964;2022-09-27T03:49:12;97340.88;;;9.62;100.00
8318;BME280;4196;48.926;8.964;2022-09-27T03:51:59;97339.28;;;9.58;100.00
8318;BME280;4196;48.926;8.964;2022-09-27T03:54:46;97350.19;;;9.67;100.00
8318;BME280;4196;48.926;8.964;2022-09-27T03:57:33;97354.59;;;9.64;100.00
8318;BME280;4196;48.926;8.964;2022-09-27T04:00:20;97341.94;;;9.55;100.00
8318;BME280;4196;48.926;8.964;2022-09-27T04:03:07;97357.38;;;9.58;100.00
8318;BME280;4196;48.926;8.964;2022-09-27T04:05:59;97357.38;;;9.58;100.00
8318;BME280;4196;48.926;8.964;2022-09-27T04:08:54;97353.94;;;9.57;100.00
8318;BME280;4196;48.926;8.964;2022-09-27T04:11:46;97347.03;;;9.58;100.00
8318;BME280;4196;48.926;8.964;2022-09-27T04:14:32;97356.38;;;9.62;100.00
8318;BME280;4196;48.926;8.964;2022-09-27T04:17:40;97358.22;;;9.58;100.00
8318;BME280;4196;48.926;8.964;2022-09-27T04:20:46;97361.72;;;9.56;100.00
8318;BME280;4196;48.926;8.964;2022-09-27T04:23:33;97365.06;;;9.59;100.00
8318;BME280;4196;48.926;8.964;2022-09-27T04:26:20;97363.31;;;9.60;100.00
8318;BME280;4196;48.926;8.964;2022-09-27T04:29:26;97342.00;;;9.52;100.00
8318;BME280;4196;48.926;8.964;2022-09-27T04:32:18;97345.44;;;9.52;100.00
8318;BME280;4196;48.926;8.964;2022-09-27T04:35:33;97359.06;;;9.59;100.00
8318;BME280;4196;48.926;8.964;2022-09-27T04:38:38;97367.50;;;9.64;100.00
8318;BME280;4196;48.926;8.964;2022-09-27T04:41:28;97369.25;;;9.65;100.00
8318;BME280;4196;48.926;8.964;2022-09-27T04:44:14;97375.41;;;9.59;100.00
8318;BME280;4196;48.926;8.964;2022-09-27T04:47:05;97373.91;;;9.51;100.00
8318;BME280;4196;48.926;8.964;2022-09-27T04:49:56;97388.44;;;9.55;100.00
8318;BME280;4196;48.926;8.964;2022-09-27T04:52:43;97370.75;;;9.39;100.00
8318;BME280;4196;48.926;8.964;2022-09-27T04:55:29;97391.03;;;9.55;100.00
8318;BME280;4196;48.926;8.964;2022-09-27T04:58:16;97391.91;;;9.54;100.00
8318;BME280;4196;48.926;8.964;2022-09-27T05:01:03;97395.34;;;9.54;100.00
8318;BME280;4196;48.926;8.964;2022-09-27T05:04:12;97400.47;;;9.56;100.00
8318;BME280;4196;48.926;8.964;2022-09-27T05:07:03;97404.66;;;9.60;100.00
8318;BME280;4196;48.926;8.964;2022-09-27T05:09:58;97413.44;;;9.54;100.00
8318;BME280;4196;48.926;8.964;2022-09-27T05:12:44;97416.81;;;9.56;100.00
8318;BME280;4196;48.926;8.964;2022-09-27T05:15:34;97416.03;;;9.53;100.00
8318;BME280;4196;48.926;8.964;2022-09-27T05:18:40;97430.75;;;9.49;100.00
8318;BME280;4196;48.926;8.964;2022-09-27T05:21:46;97431.72;;;9.45;100.00
8318;BME280;4196;48.926;8.964;2022-09-27T05:24:32;97442.03;;;9.47;100.00
8318;BME280;4196;48.926;8.964;2022-09-27T05:27:19;97425.06;;;9.36;100.00
8318;BME280;4196;48.926;8.964;2022-09-27T05:30:06;97455.06;;;9.42;100.00
8318;BME280;4196;48.926;8.964;2022-09-27T05:33:13;97443.28;;;9.30;100.00
8318;BME280;4196;48.926;8.964;2022-09-27T05:36:00;97433.09;;;9.24;100.00
8318;BME280;4196;48.926;8.964;2022-09-27T05:38:50;97459.44;;;9.38;100.00
8318;BME280;4196;48.926;8.964;2022-09-27T05:41:38;97467.19;;;9.38;100.00
8318;BME280;4196;48.926;8.964;2022-09-27T05:44:26;97463.81;;;9.36;100.00
8318;BME280;4196;48.926;8.964;2022-09-27T05:47:17;97467.88;;;9.47;100.00
8318;BME280;4196;48.926;8.964;2022-09-27T05:50:04;97473.81;;;9.50;100.00
8318;BME280;4196;48.926;8.964;2022-09-27T05:52:51;97466.84;;;9.54;100.00
8318;BME280;4196;48.926;8.964;2022-09-27T05:55:38;97470.94;;;9.62;100.00
8318;BME280;4196;48.926;8.964;2022-09-27T05:58:25;97470.88;;;9.64;100.00
8318;BME280;4196;48.926;8.964;2022-09-27T06:01:27;97467.34;;;9.68;100.00
8318;BME280;4196;48.926;8.964;2022-09-27T06:04:39;97481.84;;;9.74;100.00
8318;BME280;4196;48.926;8.964;2022-09-27T06:07:48;97415.53;;;9.38;100.00
8318;BME280;4196;48.926;8.964;2022-09-27T06:10:41;97490.06;;;9.89;100.00
8318;BME280;4196;48.926;8.964;2022-09-27T06:13:29;97465.38;;;9.78;100.00
8318;BME280;4196;48.926;8.964;2022-09-27T06:16:15;97490.06;;;9.91;100.00
8318;BME280;4196;48.926;8.964;2022-09-27T06:19:03;97495.31;;;9.86;100.00
8318;BME280;4196;48.926;8.964;2022-09-27T06:21:50;97495.41;;;9.83;100.00
8318;BME280;4196;48.926;8.964;2022-09-27T06:24:37;97506.53;;;9.87;100.00
8318;BME280;4196;48.926;8.964;2022-09-27T06:27:30;97511.78;;;9.82;100.00
8318;BME280;4196;48.926;8.964;2022-09-27T06:30:25;97504.72;;;9.90;100.00
8318;BME280;4196;48.926;8.964;2022-09-27T06:33:15;97523.56;;;9.94;100.00
8318;BME280;4196;48.926;8.964;2022-09-27T06:36:08;97520.31;;;9.87;100.00
8318;BME280;4196;48.926;8.964;2022-09-27T06:38:59;97513.34;;;9.89;100.00
8318;BME280;4196;48.926;8.964;2022-09-27T06:42:09;97522.13;;;9.82;100.00
8318;BME280;4196;48.926;8.964;2022-09-27T06:45:15;97534.41;;;9.74;100.00
8318;BME280;4196;48.926;8.964;2022-09-27T06:48:20;97539.53;;;9.76;100.00
8318;BME280;4196;48.926;8.964;2022-09-27T06:51:23;97533.59;;;9.72;100.00
8318;BME280;4196;48.926;8.964;2022-09-27T06:54:10;97545.75;;;9.67;100.00
8318;BME280;4196;48.926;8.964;2022-09-27T06:56:56;97539.88;;;9.62;100.00
8318;BME280;4196;48.926;8.964;2022-09-27T06:59:48;97536.63;;;9.52;100.00
8318;BME280;4196;48.926;8.964;2022-09-27T07:03:28;97550.13;;;9.65;100.00
8318;BME280;4196;48.926;8.964;2022-09-27T07:06:37;97558.75;;;9.64;100.00
8318;BME280;4196;48.926;8.964;2022-09-27T07:09:34;97562.16;;;9.66;100.00
8318;BME280;4196;48.926;8.964;2022-09-27T07:12:24;97564.03;;;9.59;100.00
8318;BME280;4196;48.926;8.964;2022-09-27T07:15:12;97569.94;;;9.64;100.00
8318;BME280;4196;48.926;8.964;2022-09-27T07:17:58;97567.34;;;9.66;100.00
8318;BME280;4196;48.926;8.964;2022-09-27T07:20:47;97567.19;;;9.72;100.00
8318;BME280;4196;48.926;8.964;2022-09-27T07:23:35;97578.44;;;9.70;100.00
8318;BME280;4196;48.926;8.964;2022-09-27T07:26:23;97565.63;;;9.65;100.00
8318;BME280;4196;48.926;8.964;2022-09-27T07:29:10;97569.16;;;9.61;100.00
8318;BME280;4196;48.926;8.964;2022-09-27T07:31:56;97570.94;;;9.59;100.00
8318;BME280;4196;48.926;8.964;2022-09-27T07:34:43;97582.84;;;9.66;100.00
8318;BME280;4196;48.926;8.964;2022-09-27T07:37:35;97587.81;;;9.74;100.00
8318;BME280;4196;48.926;8.964;2022-09-27T07:40:23;97592.16;;;9.73;100.00
8318;BME280;4196;48.926;8.964;2022-09-27T07:43:10;97576.88;;;9.62;100.00
8318;BME280;4196;48.926;8.964;2022-09-27T07:45:58;97582.63;;;9.75;100.00
8318;BME280;4196;48.926;8.964;2022-09-27T07:48:55;97600.31;;;9.92;100.00
8318;BME280;4196;48.926;8.964;2022-09-27T07:52:02;97594.84;;;10.04;100.00
8318;BME280;4196;48.926;8.964;2022-09-27T07:55:15;97607.59;;;10.13;100.00
8318;BME280;4196;48.926;8.964;2022-09-27T07:58:16;97604.75;;;10.23;100.00
8318;BME280;4196;48.926;8.964;2022-09-27T08:01:04;97591.94;;;10.18;100.00
8318;BME280;4196;48.926;8.964;2022-09-27T08:03:50;97617.34;;;10.38;100.00
8318;BME280;4196;48.926;8.964;2022-09-27T08:06:38;97622.44;;;10.41;100.00
8318;BME280;4196;48.926;8.964;2022-09-27T08:09:24;97615.63;;;10.38;100.00
8318;BME280;4196;48.926;8.964;2022-09-27T08:12:12;97629.22;;;10.47;100.00
8318;BME280;4196;48.926;8.964;2022-09-27T08:14:58;97607.69;;;10.45;100.00
8318;BME280;4196;48.926;8.964;2022-09-27T08:17:46;97632.31;;;10.61;100.00
8318;BME280;4196;48.926;8.964;2022-09-27T08:20:44;97647.66;;;10.67;100.00
8318;BME280;4196;48.926;8.964;2022-09-27T08:23:57;97657.38;;;10.92;100.00
8318;BME280;4196;48.926;8.964;2022-09-27T08:27:09;97655.91;;;11.14;100.00
8318;BME280;4196;48.926;8.964;2022-09-27T08:30:30;97654.50;;;11.33;100.00
8318;BME280;4196;48.926;8.964;2022-09-27T08:33:19;97657.75;;;11.42;100.00
8318;BME280;4196;48.926;8.964;2022-09-27T08:36:14;97650.94;;;11.06;100.00
8318;BME280;4196;48.926;8.964;2022-09-27T08:39:03;97666.63;;;11.02;100.00
8318;BME280;4196;48.926;8.964;2022-09-27T08:48:14;97672.78;;;10.98;100.00
8318;BME280;4196;48.926;8.964;2022-09-27T08:51:05;97661.50;;;10.99;100.00
8318;BME280;4196;48.926;8.964;2022-09-27T08:54:06;97672.28;;;11.16;100.00
8318;BME280;4196;48.926;8.964;2022-09-27T08:56:59;97666.41;;;11.09;100.00
8318;BME280;4196;48.926;8.964;2022-09-27T09:02:48;97674.03;;;11.14;100.00
8318;BME280;4196;48.926;8.964;2022-09-27T09:05:35;97659.34;;;11.46;100.00
8318;BME280;4196;48.926;8.964;2022-09-27T09:08:41;97675.78;;;11.74;100.00
8318;BME280;4196;48.926;8.964;2022-09-27T09:12:27;97671.50;;;12.03;100.00
8318;BME280;4196;48.926;8.964;2022-09-27T09:19:08;97664.72;;;12.27;100.00
8318;BME280;4196;48.926;8.964;2022-09-27T09:25:58;97680.28;;;12.27;98.20
8318;BME280;4196;48.926;8.964;2022-09-27T09:29:22;97679.72;;;12.44;99.26
8318;BME280;4196;48.926;8.964;2022-09-27T09:35:25;97669.97;;;13.02;94.84
8318;BME280;4196;48.926;8.964;2022-09-27T09:38:22;97669.84;;;13.32;90.35
8318;BME280;4196;48.926;8.964;2022-09-27T09:41:23;97657.38;;;13.41;90.00
8318;BME280;4196;48.926;8.964;2022-09-27T09:44:21;97652.34;;;13.37;89.33
8318;BME280;4196;48.926;8.964;2022-09-27T09:50:21;97654.69;;;13.43;88.03
8318;BME280;4196;48.926;8.964;2022-09-27T09:56:27;97638.66;;;13.55;87.87
8318;BME280;4196;48.926;8.964;2022-09-27T10:02:38;97634.69;;;14.12;87.20
8318;BME280;4196;48.926;8.964;2022-09-27T10:05:32;97611.44;;;14.30;81.90
8318;BME280;4196;48.926;8.964;2022-09-27T10:08:22;97628.63;;;14.76;77.03
8318;BME280;4196;48.926;8.964;2022-09-27T10:11:40;97628.97;;;14.46;75.50
8318;BME280;4196;48.926;8.964;2022-09-27T10:14:31;97625.41;;;14.07;74.94
8318;BME280;4196;48.926;8.964;2022-09-27T10:17:26;97625.97;;;13.46;75.41
8318;BME280;4196;48.926;8.964;2022-09-27T10:20:41;97640.19;;;13.12;77.92
8318;BME280;4196;48.926;8.964;2022-09-27T10:23:30;97644.84;;;12.77;81.62
8318;BME280;4196;48.926;8.964;2022-09-27T10:26:47;97634.09;;;12.37;86.67
8318;BME280;4196;48.926;8.964;2022-09-27T10:29:36;97631.41;;;12.13;88.51
8318;BME280;4196;48.926;8.964;2022-09-27T10:32:36;97641.59;;;12.19;88.74
8318;BME280;4196;48.926;8.964;2022-09-27T10:35:44;97626.88;;;12.20;91.84
8318;BME280;4196;48.926;8.964;2022-09-27T10:38:38;97613.16;;;12.16;92.56
8318;BME280;4196;48.926;8.964;2022-09-27T10:41:46;97616.53;;;12.18;90.73
8318;BME280;4196;48.926;8.964;2022-09-27T10:44:42;97628.22;;;12.05;95.66
8318;BME280;4196;48.926;8.964;2022-09-27T10:47:55;97615.81;;;11.87;95.71
8318;BME280;4196;48.926;8.964;2022-09-27T10:51:02;97621.13;;;11.82;100.00
8318;BME280;4196;48.926;8.964;2022-09-27T10:53:57;97631.47;;;11.83;100.00
8318;BME280;4196;48.926;8.964;2022-09-27T10:56:57;97627.63;;;11.67;100.00
8318;BME280;4196;48.926;8.964;2022-09-27T10:59:51;97625.97;;;11.65;100.00
8318;BME280;4196;48.926;8.964;2022-09-27T11:02:38;97625.81;;;11.40;100.00
8318;BME280;4196;48.926;8.964;2022-09-27T11:05:31;97634.28;;;11.15;100.00
8318;BME280;4196;48.926;8.964;2022-09-27T11:14:24;97628.41;;;10.77;100.00
8318;BME280;4196;48.926;8.964;2022-09-27T11:17:25;97584.66;;;10.35;100.00
8318;BME280;4196;48.926;8.964;2022-09-27T11:20:47;97642.94;;;10.49;100.00
8318;BME280;4196;48.926;8.964;2022-09-27T11:27:12;97653.13;;;10.19;100.00
8318;BME280;4196;48.926;8.964;2022-09-27T11:46:00;97669.53;;;8.94;100.00
8318;BME280;4196;48.926;8.964;2022-09-27T11:55:54;97647.44;;;8.28;100.00
8318;BME280;4196;48.926;8.964;2022-09-27T12:02:28;97649.59;;;8.56;100.00
8318;BME280;4196;48.926;8.964;2022-09-27T12:06:00;97660.06;;;8.94;100.00
8318;BME280;4196;48.926;8.964;2022-09-27T12:09:03;97655.19;;;9.24;100.00
8318;BME280;4196;48.926;8.964;2022-09-27T12:12:02;97653.09;;;9.43;100.00
8318;BME280;4196;48.926;8.964;2022-09-27T12:15:11;97647.63;;;9.57;100.00
8318;BME280;4196;48.926;8.964;2022-09-27T12:18:15;97651.84;;;9.61;100.00
8318;BME280;4196;48.926;8.964;2022-09-27T12:21:08;97625.56;;;9.42;100.00
8318;BME280;4196;48.926;8.964;2022-09-27T12:23:56;97638.31;;;9.50;100.00
8318;BME280;4196;48.926;8.964;2022-09-27T12:26:59;97636.66;;;9.46;100.00
8318;BME280;4196;48.926;8.964;2022-09-27T12:29:47;97627.44;;;9.35;100.00
8318;BME280;4196;48.926;8.964;2022-09-27T12:32:43;97606.31;;;9.15;100.00
8318;BME280;4196;48.926;8.964;2022-09-27T12:35:48;97598.47;;;9.19;100.00
8318;BME280;4196;48.926;8.964;2022-09-27T12:41:37;97618.84;;;9.33;100.00
8318;BME280;4196;48.926;8.964;2022-09-27T12:44:39;97618.91;;;9.32;100.00
8318;BME280;4196;48.926;8.964;2022-09-27T12:50:42;97611.38;;;9.21;100.00
8318;BME280;4196;48.926;8.964;2022-09-27T12:56:48;97621.22;;;9.02;100.00
8318;BME280;4196;48.926;8.964;2022-09-27T13:00:13;97620.56;;;8.91;100.00
8318;BME280;4196;48.926;8.964;2022-09-27T13:13:18;97609.03;;;9.51;100.00
8318;BME280;4196;48.926;8.964;2022-09-27T13:16:07;97600.09;;;9.64;100.00
8318;BME280;4196;48.926;8.964;2022-09-27T13:18:59;97599.94;;;9.72;100.00
8318;BME280;4196;48.926;8.964;2022-09-27T13:24:44;97600.22;;;9.97;100.00
8318;BME280;4196;48.926;8.964;2022-09-27T13:27:44;97604.03;;;10.16;100.00
8318;BME280;4196;48.926;8.964;2022-09-27T13:36:31;97603.41;;;10.44;100.00
8318;BME280;4196;48.926;8.964;2022-09-27T13:39:24;97598.34;;;10.39;100.00
8318;BME280;4196;48.926;8.964;2022-09-27T13:42:39;97605.56;;;10.26;100.00
8318;BME280;4196;48.926;8.964;2022-09-27T13:45:37;97597.34;;;10.09;100.00
8318;BME280;4196;48.926;8.964;2022-09-27T13:51:35;97590.75;;;9.96;100.00
8318;BME280;4196;48.926;8.964;2022-09-27T14:00:54;97576.72;;;10.06;100.00
8318;BME280;4196;48.926;8.964;2022-09-27T14:04:17;97581.91;;;10.06;100.00
8318;BME280;4196;48.926;8.964;2022-09-27T14:07:09;97594.00;;;10.04;100.00
8318;BME280;4196;48.926;8.964;2022-09-27T14:09:58;97587.81;;;10.11;100.00
8318;BME280;4196;48.926;8.964;2022-09-27T14:12:51;97595.69;;;10.05;100.00
8318;BME280;4196;48.926;8.964;2022-09-27T14:15:38;97556.88;;;9.72;100.00
8318;BME280;4196;48.926;8.964;2022-09-27T14:18:26;97594.56;;;9.79;100.00
8318;BME280;4196;48.926;8.964;2022-09-27T14:21:24;97579.78;;;9.86;100.00
8318;BME280;4196;48.926;8.964;2022-09-27T14:24:42;97577.84;;;9.96;100.00
8318;BME280;4196;48.926;8.964;2022-09-27T14:27:41;97582.19;;;9.93;100.00
8318;BME280;4196;48.926;8.964;2022-09-27T14:30:40;97574.94;;;10.08;100.00
8318;BME280;4196;48.926;8.964;2022-09-27T14:33:43;97583.22;;;10.22;100.00
8318;BME280;4196;48.926;8.964;2022-09-27T14:36:33;97586.59;;;10.26;100.00
8318;BME280;4196;48.926;8.964;2022-09-27T14:40:16;97575.28;;;10.30;100.00
8318;BME280;4196;48.926;8.964;2022-09-27T14:43:12;97578.69;;;10.32;100.00
8318;BME280;4196;48.926;8.964;2022-09-27T14:46:04;97579.50;;;10.34;100.00
8318;BME280;4196;48.926;8.964;2022-09-27T14:48:54;97589.91;;;10.32;100.00
8318;BME280;4196;48.926;8.964;2022-09-27T14:51:41;97582.97;;;10.33;100.00
8318;BME280;4196;48.926;8.964;2022-09-27T14:54:28;97577.06;;;10.62;100.00
8318;BME280;4196;48.926;8.964;2022-09-27T14:57:18;97573.41;;;10.69;100.00
8318;BME280;4196;48.926;8.964;2022-09-27T15:03:03;97597.41;;;10.74;100.00
8318;BME280;4196;48.926;8.964;2022-09-27T15:05:51;97590.13;;;10.56;100.00
8318;BME280;4196;48.926;8.964;2022-09-27T15:08:39;97590.22;;;10.53;100.00
8318;BME280;4196;48.926;8.964;2022-09-27T15:11:27;97585.16;;;10.48;100.00
8318;BME280;4196;48.926;8.964;2022-09-27T15:14:16;97603.13;;;10.54;100.00
8318;BME280;4196;48.926;8.964;2022-09-27T15:17:05;97597.41;;;10.74;100.00
8318;BME280;4196;48.926;8.964;2022-09-27T15:19:57;97599.28;;;10.69;100.00
8318;BME280;4196;48.926;8.964;2022-09-27T15:22:44;97580.75;;;10.52;100.00
8318;BME280;4196;48.926;8.964;2022-09-27T15:28:21;97580.94;;;10.46;100.00
8318;BME280;4196;48.926;8.964;2022-09-27T15:31:13;97577.38;;;10.50;100.00
8318;BME280;4196;48.926;8.964;2022-09-27T15:34:00;97585.78;;;10.58;100.00
8318;BME280;4196;48.926;8.964;2022-09-27T15:39:38;97569.75;;;10.76;100.00
8318;BME280;4196;48.926;8.964;2022-09-27T15:42:25;97579.69;;;10.92;100.00
8318;BME280;4196;48.926;8.964;2022-09-27T15:45:34;97508.31;;;10.52;100.00
8318;BME280;4196;48.926;8.964;2022-09-27T15:48:21;97574.50;;;10.92;100.00
8318;BME280;4196;48.926;8.964;2022-09-27T15:52:09;97570.47;;;10.81;100.00
8318;BME280;4196;48.926;8.964;2022-09-27T15:54:35;97573.41;;;10.69;100.00
8318;BME280;4196;48.926;8.964;2022-09-27T15:57:28;97514.50;;;10.46;100.00
8318;BME280;4196;48.926;8.964;2022-09-27T16:00:16;97580.13;;;10.75;100.00
8318;BME280;4196;48.926;8.964;2022-09-27T16:03:03;97574.31;;;10.68;100.00
8318;BME280;4196;48.926;8.964;2022-09-27T16:05:49;97572.88;;;10.56;100.00
8318;BME280;4196;48.926;8.964;2022-09-27T16:08:36;97592.81;;;10.53;100.00
8318;BME280;4196;48.926;8.964;2022-09-27T16:11:24;97576.13;;;10.30;100.00
8318;BME280;4196;48.926;8.964;2022-09-27T16:14:10;97590.06;;;10.23;100.00
8318;BME280;4196;48.926;8.964;2022-09-27T16:17:01;97598.72;;;10.22;100.00
8318;BME280;4196;48.926;8.964;2022-09-27T16:19:48;97599.03;;;10.10;100.00
8318;BME280;4196;48.926;8.964;2022-09-27T16:22:35;97584.75;;;9.93;100.00
8318;BME280;4196;48.926;8.964;2022-09-27T16:25:22;97576.66;;;9.73;100.00
8318;BME280;4196;48.926;8.964;2022-09-27T16:28:09;97583.69;;;9.66;100.00
8318;BME280;4196;48.926;8.964;2022-09-27T16:31:03;97604.16;;;9.76;100.00
8318;BME280;4196;48.926;8.964;2022-09-27T16:33:50;97589.59;;;9.72;100.00
8318;BME280;4196;48.926;8.964;2022-09-27T16:36:36;97596.56;;;9.68;100.00
8318;BME280;4196;48.926;8.964;2022-09-27T16:39:26;97606.94;;;9.66;100.00
8318;BME280;4196;48.926;8.964;2022-09-27T16:42:12;97598.59;;;9.55;100.00
8318;BME280;4196;48.926;8.964;2022-09-27T16:45:00;97609.03;;;9.51;100.00
8318;BME280;4196;48.926;8.964;2022-09-27T16:47:52;97599.09;;;9.32;100.00
8318;BME280;4196;48.926;8.964;2022-09-27T16:50:39;97614.53;;;9.35;100.00
8318;BME280;4196;48.926;8.964;2022-09-27T16:53:44;97609.50;;;9.28;100.00
8318;BME280;4196;48.926;8.964;2022-09-27T16:56:32;97619.81;;;9.29;100.00
8318;BME280;4196;48.926;8.964;2022-09-27T16:59:18;97611.44;;;9.18;100.00
8318;BME280;4196;48.926;8.964;2022-09-27T17:02:08;97603.06;;;9.07;100.00
8318;BME280;4196;48.926;8.964;2022-09-27T17:04:54;97625.34;;;9.11;100.00
8318;BME280;4196;48.926;8.964;2022-09-27T17:07:41;97626.34;;;9.04;100.00
8318;BME280;4196;48.926;8.964;2022-09-27T17:10:27;97605.06;;;8.91;100.00
8318;BME280;4196;48.926;8.964;2022-09-27T17:13:16;97627.19;;;9.06;100.00
8318;BME280;4196;48.926;8.964;2022-09-27T17:16:03;97632.34;;;9.04;100.00
8318;BME280;4196;48.926;8.964;2022-09-27T17:18:50;97613.69;;;8.91;100.00
8318;BME280;4196;48.926;8.964;2022-09-27T17:21:37;97630.75;;;8.99;100.00
8318;BME280;4196;48.926;8.964;2022-09-27T17:24:24;97627.44;;;8.92;100.00
8318;BME280;4196;48.926;8.964;2022-09-27T17:27:10;97623.00;;;8.99;100.00
8318;BME280;4196;48.926;8.964;2022-09-27T17:29:57;97626.31;;;9.05;100.00
8318;BME280;4196;48.926;8.964;2022-09-27T17:32:43;97627.22;;;9.03;100.00
8318;BME280;4196;48.926;8.964;2022-09-27T17:35:29;97571.09;;;8.69;100.00
8318;BME280;4196;48.926;8.964;2022-09-27T17:38:16;97630.66;;;9.02;100.00
8318;BME280;4196;48.926;8.964;2022-09-27T17:41:05;97570.53;;;8.53;100.00
8318;BME280;4196;48.926;8.964;2022-09-27T17:43:54;97631.75;;;8.91;100.00
8318;BME280;4196;48.926;8.964;2022-09-27T17:46:41;97640.41;;;8.89;100.00
8318;BME280;4196;48.926;8.964;2022-09-27T17:49:28;97583.50;;;8.49;100.00
8318;BME280;4196;48.926;8.964;2022-09-27T17:52:33;97633.84;;;8.71;100.00
8318;BME280;4196;48.926;8.964;2022-09-27T17:55:20;97636.53;;;8.65;100.00
8318;BME280;4196;48.926;8.964;2022-09-27T17:58:07;97637.59;;;8.53;100.00
8318;BME280;4196;48.926;8.964;2022-09-27T18:00:54;97642.13;;;8.39;100.00
8318;BME280;4196;48.926;8.964;2022-09-27T18:03:46;97642.28;;;8.28;100.00
8318;BME280;4196;48.926;8.964;2022-09-27T18:06:33;97632.13;;;8.19;100.00
8318;BME280;4196;48.926;8.964;2022-09-27T18:09:19;97642.41;;;8.22;100.00
8318;BME280;4196;48.926;8.964;2022-09-27T18:12:06;97652.00;;;8.12;100.00
8318;BME280;4196;48.926;8.964;2022-09-27T18:14:52;97646.84;;;8.12;100.00
8318;BME280;4196;48.926;8.964;2022-09-27T18:17:42;97658.84;;;8.15;100.00